createdAt,value
2017-07-14T00:01:41.368Z,96.42
2017-07-14T00:06:36.858Z,96.70
2017-07-14T00:11:33.344Z,95.36
2017-07-14T00:16:28.907Z,95.84
2017-07-14T00:21:24.819Z,95.27
2017-07-14T00:26:20.750Z,95.17
2017-07-14T00:31:17.528Z,96.51
2017-07-14T00:36:14.837Z,96.89
2017-07-14T00:41:11.424Z,96.80
2017-07-14T00:46:06.903Z,94.79
2017-07-14T00:51:03.748Z,97.61
2017-07-14T00:55:59.341Z,98.75
2017-07-14T01:00:54.899Z,99.14
2017-07-14T01:05:50.691Z,99.99
2017-07-14T01:10:46.326Z,99.62
2017-07-14T01:15:42.324Z,99.99
2017-07-14T01:20:38.055Z,99.99
2017-07-14T01:25:35.065Z,99.99
2017-07-14T01:30:31.694Z,99.99
2017-07-14T01:35:27.347Z,99.99
2017-07-14T01:40:23.390Z,99.99
2017-07-14T01:45:20.507Z,99.99
2017-07-14T01:50:17.325Z,99.99
2017-07-14T01:55:12.963Z,99.99
2017-07-14T02:00:08.452Z,99.99
2017-07-14T02:05:04.316Z,99.99
2017-07-14T02:10:01.147Z,99.99
2017-07-14T02:14:56.814Z,99.99
2017-07-14T02:19:53.832Z,99.99
2017-07-14T02:24:50.482Z,99.99
2017-07-14T02:29:46.149Z,99.99
2017-07-14T02:34:42.001Z,99.99
2017-07-14T02:39:37.861Z,99.99
2017-07-14T02:44:33.747Z,99.99
2017-07-14T02:49:29.356Z,99.99
2017-07-14T02:54:26.503Z,99.99
2017-07-14T02:59:21.887Z,99.99
2017-07-14T03:04:17.875Z,99.99
2017-07-14T03:09:13.635Z,99.99
2017-07-14T03:14:09.488Z,99.99
2017-07-14T03:19:06.443Z,99.99
2017-07-14T03:24:01.981Z,99.99
2017-07-14T03:28:58.550Z,99.99
2017-07-14T03:33:54.075Z,99.99
2017-07-14T03:38:49.645Z,99.99
2017-07-14T03:43:45.259Z,99.99
2017-07-14T03:48:40.992Z,99.99
2017-07-14T03:53:36.991Z,99.99
2017-07-14T03:58:33.871Z,99.99
2017-07-14T04:03:29.499Z,99.99
2017-07-14T04:08:25.200Z,99.99
2017-07-14T04:13:22.155Z,99.99
2017-07-14T04:18:18.928Z,99.99
2017-07-14T04:23:16.124Z,99.99
2017-07-14T04:28:11.746Z,99.99
2017-07-14T04:33:07.747Z,99.99
2017-07-14T04:38:04.726Z,99.99
2017-07-14T04:43:01.024Z,99.99
2017-07-14T04:47:57.234Z,99.57
2017-07-14T04:52:53.591Z,98.00
2017-07-14T04:57:51.264Z,95.46
2017-07-14T05:02:47.043Z,94.89
2017-07-14T05:07:43.635Z,94.98
2017-07-14T05:12:40.834Z,92.06
2017-07-14T05:17:38.150Z,91.14
2017-07-14T05:22:35.111Z,87.59
2017-07-14T05:27:31.235Z,83.64
2017-07-14T05:32:28.252Z,81.19
2017-07-14T05:37:23.818Z,82.30
2017-07-14T05:42:21.390Z,79.27
2017-07-14T05:47:17.457Z,78.19
2017-07-14T05:52:13.674Z,74.67
2017-07-14T05:57:09.628Z,74.86
2017-07-14T06:02:05.624Z,76.26
2017-07-14T06:07:02.640Z,80.80
2017-07-14T06:11:58.059Z,83.51
2017-07-14T06:16:53.243Z,85.58
2017-07-14T06:21:48.708Z,86.72
2017-07-14T06:26:45.334Z,87.16
2017-07-14T06:31:41.749Z,87.78
2017-07-14T06:36:37.387Z,87.64
2017-07-14T06:41:33.154Z,87.01
2017-07-14T06:46:29.176Z,86.82
2017-07-14T06:51:25.438Z,85.58
2017-07-14T06:56:21.010Z,86.05
2017-07-14T07:01:18.450Z,82.51
2017-07-14T07:06:14.069Z,82.35
2017-07-14T07:11:10.331Z,78.32
2017-07-14T07:16:06.248Z,75.10
2017-07-14T07:21:02.316Z,74.71
2017-07-14T07:25:58.818Z,74.13
2017-07-14T07:30:54.753Z,71.67
2017-07-14T07:35:50.842Z,71.96
2017-07-14T07:40:46.775Z,68.89
2017-07-14T07:45:42.768Z,67.96
2017-07-14T07:50:38.935Z,69.31
2017-07-14T07:55:35.372Z,61.39
2017-07-14T08:00:33.508Z,58.92
2017-07-14T08:05:33.257Z,54.47
2017-07-14T08:10:28.733Z,52.16
2017-07-14T08:15:24.532Z,49.63
2017-07-14T08:20:23.695Z,48.38
2017-07-14T08:25:19.514Z,49.94
2017-07-14T08:30:15.419Z,50.13
2017-07-14T08:35:11.797Z,53.31
2017-07-14T08:40:06.793Z,54.35
2017-07-14T08:45:06.073Z,53.53
2017-07-14T08:50:01.594Z,50.26
2017-07-14T08:54:59.281Z,49.82
2017-07-14T08:59:57.057Z,48.16
2017-07-14T09:04:54.891Z,46.32
2017-07-14T09:09:51.314Z,47.84
2017-07-14T09:19:47.604Z,51.70
2017-07-14T09:24:46.712Z,49.53
2017-07-14T09:29:43.820Z,48.49
2017-07-14T09:34:40.189Z,47.05
2017-07-14T09:39:37.321Z,48.49
2017-07-14T09:44:33.309Z,47.26
2017-07-14T09:49:28.161Z,48.83
2017-07-14T09:54:23.465Z,48.25
2017-07-14T09:59:19.210Z,50.59
2017-07-14T10:04:16.848Z,50.98
2017-07-14T10:09:14.127Z,47.94
2017-07-14T10:14:11.154Z,45.98
2017-07-14T10:19:10.094Z,46.78
2017-07-14T10:24:04.538Z,45.86
2017-07-14T10:28:59.014Z,48.83
2017-07-14T10:33:53.550Z,49.90
2017-07-14T10:38:48.633Z,49.41
2017-07-14T10:43:45.056Z,51.61
2017-07-14T10:48:41.320Z,50.16
2017-07-14T10:53:37.628Z,51.70
2017-07-14T10:58:34.893Z,52.11
2017-07-14T11:03:31.380Z,50.67
2017-07-14T11:08:26.733Z,50.54
2017-07-14T11:13:21.673Z,53.25
2017-07-14T11:18:17.484Z,53.63
2017-07-14T11:23:13.500Z,53.63
2017-07-14T11:28:09.252Z,53.70
2017-07-14T11:33:04.405Z,55.05
2017-07-14T11:38:00.937Z,50.69
2017-07-14T11:42:57.677Z,53.67
2017-07-14T11:47:52.998Z,53.29
2017-07-14T11:52:48.713Z,50.59
2017-07-14T11:57:44.466Z,50.88
2017-07-14T12:02:40.921Z,50.95
2017-07-14T12:07:36.661Z,52.23
2017-07-14T12:12:32.524Z,53.39
2017-07-14T12:17:28.627Z,53.94
2017-07-14T12:22:24.687Z,54.44
2017-07-14T12:27:20.919Z,55.22
2017-07-14T12:32:17.889Z,56.57
2017-07-14T12:37:13.215Z,58.95
2017-07-14T12:42:08.634Z,62.38
2017-07-14T12:47:05.140Z,63.60
2017-07-14T12:52:01.649Z,63.34
2017-07-14T12:56:57.372Z,63.31
2017-07-14T13:01:53.389Z,63.34
2017-07-14T13:06:50.838Z,62.48
2017-07-14T13:11:47.115Z,61.22
2017-07-14T13:16:44.700Z,61.45
2017-07-14T13:21:40.255Z,60.87
2017-07-14T13:26:38.517Z,61.45
2017-07-14T13:31:35.180Z,62.15
2017-07-14T13:36:31.647Z,62.83
2017-07-14T13:41:27.173Z,62.99
2017-07-14T13:46:22.725Z,62.87
2017-07-14T13:51:18.031Z,65.08
2017-07-14T13:56:15.027Z,65.46
2017-07-14T14:01:10.486Z,65.46
2017-07-14T14:06:08.019Z,66.62
2017-07-14T14:11:04.113Z,66.68
2017-07-14T14:15:59.871Z,67.16
2017-07-14T14:20:57.120Z,68.03
2017-07-14T14:25:53.652Z,72.26
2017-07-14T14:30:50.644Z,73.67
2017-07-14T14:35:47.180Z,75.46
2017-07-14T14:40:42.592Z,80.94
2017-07-14T14:45:39.734Z,84.17
2017-07-14T14:50:35.060Z,86.57
2017-07-14T14:55:32.267Z,88.93
2017-07-14T15:00:28.554Z,89.31
2017-07-14T15:05:24.097Z,90.84
2017-07-14T15:10:20.928Z,91.81
2017-07-14T15:15:16.345Z,92.53
2017-07-14T15:20:12.479Z,95.50
2017-07-14T15:25:08.337Z,96.18
2017-07-14T15:30:03.971Z,98.00
2017-07-14T15:34:59.798Z,99.82
2017-07-14T15:39:56.554Z,99.05
2017-07-14T15:44:52.050Z,99.99
2017-07-14T15:49:47.741Z,99.99
2017-07-14T15:54:44.432Z,99.99
2017-07-14T15:59:41.474Z,99.99
2017-07-14T16:04:37.151Z,99.99
2017-07-14T16:09:33.234Z,99.99
2017-07-14T16:14:30.239Z,99.99
2017-07-14T16:19:25.993Z,99.99
2017-07-14T16:24:23.020Z,99.99
2017-07-14T16:29:18.526Z,99.99
2017-07-14T16:34:15.695Z,99.99
2017-07-14T16:39:11.010Z,99.99
2017-07-14T16:44:08.481Z,99.99
2017-07-14T16:49:04.052Z,99.99
2017-07-14T16:53:59.706Z,99.99
2017-07-14T16:58:56.503Z,99.99
2017-07-14T17:03:52.328Z,99.99
2017-07-14T17:08:48.453Z,99.99
2017-07-14T17:13:45.002Z,99.99
2017-07-14T17:18:41.847Z,99.99
2017-07-14T17:23:38.194Z,99.99
2017-07-14T17:28:33.716Z,99.99
2017-07-14T17:33:29.578Z,99.99
2017-07-14T17:38:25.251Z,99.99
2017-07-14T17:43:21.016Z,99.99
2017-07-14T17:48:18.955Z,99.99
2017-07-14T17:53:15.365Z,99.99
2017-07-14T17:58:12.862Z,99.99
2017-07-14T18:03:08.474Z,98.91
2017-07-14T18:08:04.485Z,99.77
2017-07-14T18:13:00.477Z,99.20
2017-07-14T18:17:56.513Z,98.24
2017-07-14T18:22:53.368Z,98.91
2017-07-14T18:27:50.925Z,92.34
2017-07-14T18:32:47.291Z,90.81
2017-07-14T18:37:42.432Z,90.86
2017-07-14T18:42:39.791Z,91.05
2017-07-14T18:47:36.944Z,92.01
2017-07-14T18:52:32.532Z,91.82
2017-07-14T18:57:29.001Z,92.68
2017-07-14T19:02:26.537Z,93.06
2017-07-14T19:07:24.468Z,93.63
2017-07-14T19:12:19.714Z,95.07
2017-07-14T19:17:17.177Z,95.94
2017-07-14T19:22:13.589Z,95.36
2017-07-14T19:27:10.352Z,96.80
2017-07-14T19:32:08.305Z,96.56
2017-07-14T19:37:04.612Z,97.42
2017-07-14T19:42:01.324Z,98.38
2017-07-14T19:46:56.617Z,97.42
2017-07-14T19:51:53.645Z,96.94
2017-07-14T19:56:50.545Z,97.14
2017-07-14T20:01:47.077Z,96.66
2017-07-14T20:06:42.692Z,96.56
2017-07-14T20:11:39.559Z,95.79
2017-07-14T20:16:36.210Z,96.75
2017-07-14T20:21:31.856Z,96.66
2017-07-14T20:26:27.566Z,96.75
2017-07-14T20:31:23.918Z,97.80
2017-07-14T20:36:19.787Z,97.71
2017-07-14T20:41:17.634Z,99.99
2017-07-14T20:46:13.179Z,99.99
2017-07-14T20:51:09.173Z,99.99
2017-07-14T20:56:05.878Z,99.99
2017-07-14T21:01:01.269Z,99.99
2017-07-14T21:05:56.877Z,99.99
2017-07-14T21:10:52.705Z,99.99
2017-07-14T21:15:49.037Z,99.99
2017-07-14T21:20:44.958Z,99.99
2017-07-14T21:25:41.814Z,99.99
2017-07-14T21:30:37.361Z,99.99
2017-07-14T21:35:33.056Z,99.99
2017-07-14T21:40:29.947Z,99.99
2017-07-14T21:45:25.308Z,99.99
2017-07-14T21:50:21.194Z,99.99
2017-07-14T21:55:17.112Z,99.99
2017-07-14T22:00:13.149Z,99.99
2017-07-14T22:05:09.134Z,99.99
2017-07-14T22:10:05.899Z,99.99
2017-07-14T22:15:02.874Z,99.99
2017-07-14T22:19:58.363Z,99.99
2017-07-14T22:24:54.496Z,99.99
2017-07-14T22:29:50.284Z,99.99
2017-07-14T22:34:46.020Z,99.99
2017-07-14T22:39:42.126Z,99.99
2017-07-14T22:44:38.911Z,99.99
2017-07-14T22:49:35.442Z,99.99
2017-07-14T22:54:30.905Z,99.99
2017-07-14T22:59:26.699Z,99.99
2017-07-14T23:04:22.642Z,99.99
2017-07-14T23:09:18.290Z,99.99
2017-07-14T23:14:14.758Z,99.99
2017-07-14T23:19:10.867Z,99.99
2017-07-14T23:24:06.552Z,99.99
2017-07-14T23:29:02.953Z,99.99
2017-07-14T23:33:58.965Z,99.99
2017-07-14T23:38:54.732Z,99.99
2017-07-14T23:43:51.264Z,99.99
2017-07-14T23:48:47.347Z,99.99
2017-07-14T23:53:43.328Z,99.99
2017-07-14T23:58:39.521Z,99.99
